Time;durP1;ratioP1;P1;durP2;ratioP2;P2;SDS_P1;SDS_P2;PMS_P1;PMS_P2;Temp;Humidity;BMP_temperature;BMP_pressure;BME280_temperature;BME280_humidity;BME280_pressure;Samples;Min_cycle;Max_cycle;Signal;HPM_P1;HPM_P2
2021/08/12 00:01:54;;;;;;;6.28;4.60;;;;;;;18.65;68.49;99919.14;1642323;87;21100;-73
2021/08/12 00:04:21;;;;;;;7.58;5.00;;;;;;;18.61;69.54;99912.36;1665651;86;21575;-73
2021/08/12 00:06:49;;;;;;;8.53;4.45;;;;;;;18.57;69.75;99912.20;1642652;87;21101;-72
2021/08/12 00:09:15;;;;;;;5.97;4.75;;;;;;;18.55;68.57;99911.95;1665866;86;21550;-73
2021/08/12 00:11:42;;;;;;;8.50;5.35;;;;;;;18.54;71.13;99905.78;1643954;87;21655;-74
2021/08/12 00:14:09;;;;;;;6.20;4.42;;;;;;;18.53;69.07;99908.06;1667780;86;21071;-78
2021/08/12 00:16:36;;;;;;;8.68;5.37;;;;;;;18.52;69.73;99906.38;1644246;87;21256;-79
2021/08/12 00:19:03;;;;;;;7.33;4.58;;;;;;;18.51;70.15;99910.47;1666151;86;21115;-78
2021/08/12 00:21:30;;;;;;;7.53;5.00;;;;;;;18.46;70.02;99902.81;1642617;87;21172;-78
2021/08/12 00:23:57;;;;;;;7.83;4.90;;;;;;;18.44;71.06;99900.73;1665677;86;21076;-79
2021/08/12 00:26:24;;;;;;;8.75;4.70;;;;;;;18.41;70.73;99903.15;1642354;87;22266;-78
2021/08/12 00:28:51;;;;;;;9.08;4.97;;;;;;;18.38;70.81;99906.05;1642441;87;21088;-78
2021/08/12 00:31:18;;;;;;;9.75;5.53;;;;;;;18.34;71.45;99901.90;1688771;83;21040;-80
2021/08/12 00:33:45;;;;;;;6.47;4.28;;;;;;;18.32;70.74;99901.16;1669171;85;21140;-78
2021/08/12 00:36:12;;;;;;;11.33;5.58;;;;;;;18.30;71.84;99896.91;1693369;84;21063;-79
2021/08/12 00:38:39;;;;;;;7.75;4.67;;;;;;;18.26;71.49;99902.08;1669197;85;22298;-78
2021/08/12 00:41:10;;;;;;;7.83;4.92;;;;;;;18.21;71.52;99897.08;1692908;84;21167;-78
2021/08/12 00:43:37;;;;;;;8.90;4.95;;;;;;;18.17;72.42;99897.77;1643655;85;21144;-78
2021/08/12 00:46:06;;;;;;;4.95;3.70;;;;;;;18.14;71.96;99895.34;1692834;84;21130;-78
2021/08/12 00:48:32;;;;;;;7.80;5.05;;;;;;;18.11;72.43;99906.23;1668673;85;21287;-80
2021/08/12 00:51:00;;;;;;;5.47;4.30;;;;;;;18.09;72.80;99901.98;1668834;85;21076;-79
2021/08/12 00:53:28;;;;;;;7.03;4.80;;;;;;;18.08;72.40;99906.43;1693150;84;21726;-77
2021/08/12 00:55:55;;;;;;;7.28;4.70;;;;;;;18.08;73.51;99905.59;1668684;85;21131;-77
2021/08/12 00:58:22;;;;;;;7.95;4.92;;;;;;;18.05;73.20;99908.48;1690456;84;22224;-78
2021/08/12 01:00:52;;;;;;;8.15;4.62;;;;;;;18.02;74.01;99906.89;1669000;85;21104;-80
2021/08/12 01:03:18;;;;;;;7.90;4.40;;;;;;;18.01;74.39;99906.50;1692874;84;21015;-79
2021/08/12 01:05:56;;;;;;;7.15;4.85;;;;;;;17.97;73.96;99907.70;1670305;85;22301;-79
2021/08/12 01:09:06;;;;;;;6.62;4.80;;;;;;;17.96;75.02;99913.48;1693638;84;21621;-78
2021/08/12 01:11:41;;;;;;;10.18;4.78;;;;;;;17.94;74.64;99917.23;1669198;85;21105;-78
2021/08/12 01:14:20;;;;;;;9.85;4.85;;;;;;;17.92;74.65;99915.16;1693318;84;21684;-78
2021/08/12 01:16:53;;;;;;;6.58;5.10;;;;;;;17.88;75.54;99922.52;1681303;84;21027;-80
2021/08/12 01:19:41;;;;;;;8.00;4.83;;;;;;;17.85;75.96;99920.55;1669012;85;21084;-77
2021/08/12 01:22:08;;;;;;;6.87;5.00;;;;;;;17.81;75.51;99919.44;1693063;84;21134;-77
2021/08/12 01:24:39;;;;;;;5.83;4.90;;;;;;;17.80;76.00;99924.34;1669237;85;21493;-80
2021/08/12 01:27:11;;;;;;;6.67;3.83;;;;;;;17.78;76.41;99929.41;1693195;84;21099;-79
2021/08/12 01:29:52;;;;;;;9.60;5.47;;;;;;;17.75;76.41;99932.30;1669550;85;21742;-78
2021/08/12 01:32:35;;;;;;;6.30;4.83;;;;;;;17.72;77.14;99942.69;1668147;85;21069;-78
2021/08/12 01:35:09;;;;;;;10.38;5.58;;;;;;;17.70;76.51;99940.61;1668193;85;21639;-80
2021/08/12 01:37:48;;;;;;;6.90;4.70;;;;;;;17.68;76.50;99938.53;1725999;83;21124;-81
2021/08/12 01:40:16;;;;;;;7.75;5.65;;;;;;;17.67;77.34;99947.95;1725491;83;21072;-81
2021/08/12 01:42:44;;;;;;;9.80;5.65;;;;;;;17.63;77.07;99943.33;1726407;83;21095;-78
2021/08/12 01:45:15;;;;;;;7.67;4.97;;;;;;;17.61;77.19;99943.91;1726173;83;21096;-75
2021/08/12 01:47:43;;;;;;;7.72;5.33;;;;;;;17.55;77.94;99932.34;1726172;83;21104;-78
2021/08/12 01:50:14;;;;;;;9.05;4.92;;;;;;;17.58;77.25;99947.64;1726476;83;21115;-76
2021/08/12 01:55:31;;;;;;;7.90;5.90;;;;;;;17.55;78.35;99948.32;1794220;79;23326;-76
2021/08/12 01:58:00;;;;;;;11.35;6.15;;;;;;;17.47;78.16;99948.86;1692533;84;21048;-77
2021/08/12 02:00:30;;;;;;;8.23;6.12;;;;;;;17.45;78.86;99944.60;1664900;84;21118;-78
2021/08/12 02:02:59;;;;;;;8.15;5.12;;;;;;;17.44;78.88;99953.53;1692152;84;23171;-77
2021/08/12 02:05:26;;;;;;;9.08;6.28;;;;;;;17.42;78.62;99955.47;1692185;84;21064;-78
2021/08/12 02:07:53;;;;;;;9.70;6.17;;;;;;;17.39;79.27;99947.19;1692664;84;21061;-78
2021/08/12 02:10:21;;;;;;;9.88;5.90;;;;;;;17.35;78.76;99945.23;1692359;84;21603;-76
2021/08/12 02:12:48;;;;;;;8.60;6.20;;;;;;;17.33;79.02;99949.80;1692425;84;21191;-76
2021/08/12 02:15:16;;;;;;;9.83;6.20;;;;;;;17.30;80.17;99946.03;1692233;84;21000;-76
2021/08/12 02:17:43;;;;;;;8.88;5.90;;;;;;;17.26;79.85;99951.17;1692649;84;21061;-76
2021/08/12 02:20:14;;;;;;;7.10;5.75;;;;;;;17.26;80.23;99950.33;1692751;84;21096;-75
2021/08/12 02:22:57;;;;;;;7.58;5.17;;;;;;;17.24;79.54;99960.22;1664464;84;21579;-76
2021/08/12 02:25:45;;;;;;;9.48;5.55;;;;;;;17.23;79.88;99969.14;1707031;83;21144;-74
2021/08/12 02:28:12;;;;;;;8.88;6.08;;;;;;;17.20;80.87;99967.55;1690609;84;21052;-78
2021/08/12 02:30:41;;;;;;;10.32;5.83;;;;;;;17.18;80.52;99966.80;1692758;84;21087;-78
2021/08/12 02:33:12;;;;;;;8.15;5.83;;;;;;;17.15;80.42;99967.01;1692328;84;21100;-78
2021/08/12 02:35:39;;;;;;;10.10;6.60;;;;;;;17.15;80.82;99969.67;1692087;84;21025;-77
2021/08/12 02:38:09;;;;;;;6.42;5.55;;;;;;;17.11;80.28;99971.67;1692236;84;21534;-76
2021/08/12 02:40:38;;;;;;;9.08;6.58;;;;;;;17.11;81.17;99969.49;1692282;84;21075;-76
2021/08/12 02:43:05;;;;;;;8.70;5.83;;;;;;;17.09;81.30;99972.73;1657794;84;21128;-77
2021/08/12 02:45:34;;;;;;;10.13;6.42;;;;;;;17.07;80.40;99983.49;1640605;86;21096;-78
2021/08/12 02:48:01;;;;;;;10.28;6.12;;;;;;;17.07;81.11;99986.61;1692089;84;21108;-78
2021/08/12 02:50:29;;;;;;;8.48;6.78;;;;;;;17.05;80.73;99984.55;1692369;84;21120;-78
2021/08/12 02:52:56;;;;;;;9.48;6.12;;;;;;;17.02;80.69;99987.40;1691666;84;21073;-79
2021/08/12 02:55:25;;;;;;;8.33;5.10;;;;;;;16.99;81.25;99986.64;1683676;84;21089;-77
2021/08/12 02:57:52;;;;;;;8.40;5.83;;;;;;;16.98;79.86;99992.94;1682611;85;21328;-76
2021/08/12 03:00:22;;;;;;;8.08;6.30;;;;;;;16.94;81.49;99992.75;1641488;85;21100;-75
2021/08/12 03:02:49;;;;;;;7.67;5.78;;;;;;;16.95;80.93;99993.59;1668038;86;22148;-76
2021/08/12 03:05:16;;;;;;;10.13;6.62;;;;;;;16.90;80.43;100001.88;1668411;85;21088;-77
2021/08/12 03:07:43;;;;;;;8.43;6.35;;;;;;;16.88;81.29;99997.61;1671067;86;21002;-77
2021/08/12 03:10:12;;;;;;;10.38;5.25;;;;;;;16.85;80.56;100002.66;1671291;86;21033;-77
2021/08/12 03:12:40;;;;;;;8.48;5.60;;;;;;;16.83;81.07;100004.56;1670734;86;21116;-78
2021/08/12 03:15:10;;;;;;;7.53;5.97;;;;;;;16.82;81.07;100006.86;1667794;86;21123;-75
2021/08/12 03:17:37;;;;;;;9.18;6.30;;;;;;;16.83;81.09;100004.56;1668005;86;21060;-77
2021/08/12 03:20:06;;;;;;;7.85;6.50;;;;;;;16.85;81.58;100000.00;1667866;86;21156;-76
2021/08/12 03:22:33;;;;;;;10.13;6.25;;;;;;;16.91;80.96;100002.27;1667642;86;22277;-76
2021/08/12 03:25:01;;;;;;;7.15;5.62;;;;;;;17.05;80.86;99996.53;1670035;86;21092;-76
2021/08/12 03:27:28;;;;;;;8.80;6.00;;;;;;;17.34;80.62;100002.55;1618061;86;21111;-76
2021/08/12 03:29:56;;;;;;;8.63;5.30;;;;;;;17.75;79.05;100001.06;1654630;86;21097;-75
2021/08/12 03:32:24;;;;;;;8.48;5.62;;;;;;;18.13;77.86;100005.58;1640526;87;21401;-78
2021/08/12 03:34:53;;;;;;;8.03;5.10;;;;;;;18.54;76.05;100007.11;1654343;86;21086;-76
2021/08/12 03:37:20;;;;;;;9.98;6.65;;;;;;;18.94;73.63;100014.05;1640197;87;21390;-77
2021/08/12 03:39:47;;;;;;;7.58;6.05;;;;;;;19.27;72.53;100006.67;1654216;86;21151;-78
2021/08/12 03:42:15;;;;;;;8.55;4.78;;;;;;;19.55;70.40;100008.58;1640134;87;21588;-78
2021/08/12 03:44:42;;;;;;;10.98;5.90;;;;;;;19.84;69.32;100012.57;1653950;86;21150;-78
2021/08/12 03:47:09;;;;;;;6.72;5.60;;;;;;;20.14;68.15;100008.97;1640645;87;21183;-76
2021/08/12 03:49:36;;;;;;;9.30;5.45;;;;;;;20.40;66.40;100005.55;1654542;86;21092;-80
2021/08/12 03:52:04;;;;;;;8.68;6.00;;;;;;;20.67;66.11;100007.36;1640330;87;22028;-80
2021/08/12 03:54:35;;;;;;;18.32;4.95;;;;;;;20.94;64.79;100011.45;1661527;85;21589;-79
2021/08/12 03:57:04;;;;;;;8.55;5.47;;;;;;;21.14;63.66;100013.80;1676395;85;21007;-77
2021/08/12 03:59:31;;;;;;;7.95;5.17;;;;;;;21.36;63.21;100008.85;1676926;85;21081;-78
2021/08/12 04:01:59;;;;;;;6.30;5.08;;;;;;;21.64;61.38;100018.61;1677136;85;21490;-77
2021/08/12 04:04:30;;;;;;;7.58;5.42;;;;;;;21.85;61.17;100019.44;1676640;85;21257;-75
2021/08/12 04:06:57;;;;;;;7.90;4.53;;;;;;;22.09;60.24;100031.73;1673995;85;21572;-81
2021/08/12 04:09:24;;;;;;;8.43;5.70;;;;;;;22.26;58.17;100036.48;1673783;85;21125;-79
2021/08/12 04:11:51;;;;;;;6.67;4.90;;;;;;;22.41;58.63;100029.78;1673919;85;21098;-78
2021/08/12 04:14:18;;;;;;;7.97;4.92;;;;;;;22.53;57.35;100029.19;1673244;85;21135;-79
2021/08/12 04:16:52;;;;;;;8.23;4.47;;;;;;;22.76;57.12;100033.84;1673797;85;21503;-75
2021/08/12 04:19:19;;;;;;;5.47;4.70;;;;;;;22.90;56.63;100029.08;1638640;85;21655;-74
2021/08/12 04:21:45;;;;;;;5.17;4.30;;;;;;;23.10;54.69;100037.55;1666181;85;21134;-73
2021/08/12 04:24:13;;;;;;;5.30;4.40;;;;;;;23.34;54.83;100045.19;1653371;85;21105;-74
2021/08/12 04:26:40;;;;;;;6.55;4.75;;;;;;;23.61;53.85;100040.95;1674540;85;21077;-73
2021/08/12 04:29:08;;;;;;;7.80;4.62;;;;;;;23.84;53.06;100048.24;1673976;85;21159;-73
2021/08/12 04:31:34;;;;;;;7.37;4.87;;;;;;;23.97;53.14;100050.13;1674000;85;21092;-74
2021/08/12 04:34:02;;;;;;;11.25;5.22;;;;;;;24.19;52.36;100044.05;1659272;85;21090;-77
2021/08/12 04:36:29;;;;;;;6.67;4.10;;;;;;;24.38;51.85;100041.27;1664851;85;21074;-78
2021/08/12 04:38:56;;;;;;;5.70;4.25;;;;;;;24.54;51.52;100043.36;1664472;85;21106;-77
2021/08/12 04:41:24;;;;;;;5.10;3.98;;;;;;;24.73;50.68;100045.60;1639320;85;21118;-78
2021/08/12 04:43:52;;;;;;;7.37;4.53;;;;;;;24.90;50.10;100048.34;1641234;85;21070;-76
2021/08/12 04:46:20;;;;;;;9.00;3.65;;;;;;;24.90;48.84;100046.99;1658053;84;21214;-77
2021/08/12 04:48:48;;;;;;;9.48;4.28;;;;;;;24.93;48.71;100053.08;1640839;85;21068;-77
2021/08/12 04:51:15;;;;;;;5.62;3.55;;;;;;;25.02;48.74;100045.43;1657504;86;21048;-77
2021/08/12 04:53:42;;;;;;;5.08;3.98;;;;;;;25.18;47.95;100055.06;1661031;84;21116;-78
2021/08/12 04:56:09;;;;;;;5.20;3.60;;;;;;;25.53;47.63;100052.02;1662797;85;21077;-77
2021/08/12 04:58:36;;;;;;;7.37;3.50;;;;;;;25.93;46.29;100052.04;1669605;84;21617;-79
2021/08/12 05:01:03;;;;;;;9.03;3.90;;;;;;;26.25;45.09;100050.05;1664060;84;21115;-77
2021/08/12 05:03:31;;;;;;;5.53;3.90;;;;;;;26.35;45.02;100045.88;1670263;85;21083;-77
2021/08/12 05:06:03;;;;;;;4.65;3.55;;;;;;;26.35;44.37;100048.58;1670516;85;22287;-77
2021/08/12 05:08:30;;;;;;;6.22;3.50;;;;;;;26.49;44.41;100056.06;1666326;84;21077;-76
2021/08/12 05:10:58;;;;;;;4.03;3.27;;;;;;;26.69;44.02;100053.16;1650491;84;21142;-76
2021/08/12 05:13:26;;;;;;;6.22;4.03;;;;;;;26.96;43.06;100051.56;1670332;84;21140;-78
2021/08/12 05:15:53;;;;;;;4.85;3.42;;;;;;;27.05;43.38;100056.97;1655011;86;21553;-77
2021/08/12 05:18:20;;;;;;;7.12;4.00;;;;;;;27.26;42.40;100057.37;1715938;82;21143;-77
2021/08/12 05:20:47;;;;;;;7.85;3.50;;;;;;;27.34;41.94;100058.74;1702280;83;21051;-78
2021/08/12 05:23:15;;;;;;;6.08;3.50;;;;;;;27.39;42.19;100046.91;1693666;82;21639;-76
2021/08/12 05:25:44;;;;;;;5.37;3.60;;;;;;;27.48;41.79;100046.93;1715076;83;21075;-78
2021/08/12 05:28:12;;;;;;;6.08;3.12;;;;;;;27.63;40.96;100060.13;1718608;83;21682;-77
2021/08/12 05:30:39;;;;;;;4.65;3.60;;;;;;;27.67;41.13;100051.98;1714362;82;21135;-79
2021/08/12 05:33:08;;;;;;;4.87;3.70;;;;;;;27.68;41.13;100060.98;1717129;81;21065;-77
2021/08/12 05:35:35;;;;;;;4.60;3.77;;;;;;;27.64;41.46;100060.45;1698468;83;21055;-78
2021/08/12 05:38:04;;;;;;;4.35;3.22;;;;;;;27.59;41.25;100054.72;1714515;83;21147;-78
2021/08/12 05:40:33;;;;;;;4.22;3.55;;;;;;;27.62;41.24;100057.07;1718086;82;21056;-77
2021/08/12 05:43:00;;;;;;;6.45;3.72;;;;;;;27.70;41.31;100054.86;1719378;83;21510;-79
2021/08/12 05:45:30;;;;;;;8.33;4.10;;;;;;;28.10;40.59;100058.59;1714574;82;21025;-78
2021/08/12 05:47:58;;;;;;;6.62;4.10;;;;;;;28.10;40.59;100058.59;1712752;83;21091;-79
2021/08/12 05:50:26;;;;;;;11.30;3.70;;;;;;;28.20;40.07;100051.95;1716491;82;21104;-79
2021/08/12 05:52:53;;;;;;;4.78;3.33;;;;;;;28.19;39.54;100061.61;1715241;82;21083;-79
2021/08/12 05:55:22;;;;;;;5.92;3.52;;;;;;;28.19;39.88;100059.75;1718711;81;21570;-77
2021/08/12 05:57:50;;;;;;;3.83;3.08;;;;;;;28.12;39.52;100056.05;1703056;83;21594;-77
2021/08/12 06:00:18;;;;;;;7.90;3.60;;;;;;;28.10;39.44;100064.00;1715806;83;21134;-79
2021/08/12 06:02:49;;;;;;;5.35;3.25;;;;;;;28.30;39.44;100057.67;1706182;83;21107;-77
2021/08/12 06:05:18;;;;;;;13.83;4.40;;;;;;;28.47;38.67;100055.30;1711741;82;21172;-77
2021/08/12 06:07:47;;;;;;;4.58;3.35;;;;;;;28.68;38.51;100054.70;1710859;83;21071;-77
2021/08/12 06:10:15;;;;;;;5.08;3.25;;;;;;;28.85;38.14;100056.84;1714973;82;21103;-76
2021/08/12 06:12:42;;;;;;;12.30;4.12;;;;;;;28.92;37.92;100064.59;1714711;83;21063;-77
2021/08/12 06:15:11;;;;;;;3.17;2.62;;;;;;;29.01;37.67;100058.11;1711892;83;21076;-77
2021/08/12 06:17:39;;;;;;;4.15;3.20;;;;;;;29.10;36.84;100062.14;1719994;82;21088;-78
2021/08/12 06:20:11;;;;;;;8.55;2.83;;;;;;;29.22;37.17;100058.84;1716582;82;21005;-78
2021/08/12 06:22:38;;;;;;;6.40;3.30;;;;;;;29.45;37.03;100065.64;1715773;82;21554;-76
2021/08/12 06:25:07;;;;;;;11.15;3.22;;;;;;;29.60;36.15;100067.55;1713795;83;21028;-77
2021/08/12 06:27:34;;;;;;;8.20;3.27;;;;;;;29.60;36.06;100065.67;1718031;82;21101;-78
2021/08/12 06:30:01;;;;;;;7.10;2.80;;;;;;;29.71;35.72;100064.44;1715998;83;21541;-79
2021/08/12 06:32:28;;;;;;;8.55;3.55;;;;;;;29.71;35.72;100064.44;1712714;81;21138;-78
2021/08/12 06:34:57;;;;;;;4.10;2.60;;;;;;;29.87;35.20;100071.08;1718782;81;21080;-77
2021/08/12 06:37:24;;;;;;;10.70;3.15;;;;;;;29.92;34.19;100067.81;1678603;83;21648;-77
2021/08/12 06:39:52;;;;;;;6.83;2.85;;;;;;;29.95;34.19;100074.73;1719712;82;21275;-76
2021/08/12 06:42:19;;;;;;;3.77;2.72;;;;;;;29.57;34.10;100073.35;1731543;82;21100;-79
2021/08/12 06:44:53;;;;;;;4.65;2.60;;;;;;;29.57;34.10;100073.35;1711216;82;21174;-77
2021/08/12 06:47:20;;;;;;;4.10;2.70;;;;;;;29.72;34.36;100072.90;1720526;82;21135;-76
2021/08/12 06:49:49;;;;;;;4.72;2.90;;;;;;;29.74;33.80;100074.92;1712240;82;21152;-77
2021/08/12 06:52:17;;;;;;;10.55;3.58;;;;;;;29.69;34.28;100073.27;1719354;82;21122;-78
2021/08/12 06:54:45;;;;;;;7.17;2.80;;;;;;;29.65;34.78;100086.84;1723192;81;21094;-77
2021/08/12 06:57:13;;;;;;;6.25;2.77;;;;;;;29.58;33.68;100084.52;1724050;81;21152;-78
2021/08/12 06:59:40;;;;;;;4.37;2.60;;;;;;;29.45;34.18;100087.34;1729620;82;21365;-77
2021/08/12 07:02:07;;;;;;;5.72;3.05;;;;;;;29.27;34.10;100084.08;1717544;82;21052;-78
2021/08/12 07:04:34;;;;;;;4.72;2.92;;;;;;;29.22;34.33;100081.90;1660567;85;21128;-77
2021/08/12 07:07:01;;;;;;;4.55;3.10;;;;;;;29.34;33.81;100083.69;1719522;82;21099;-79
2021/08/12 07:09:28;;;;;;;7.22;3.17;;;;;;;29.36;33.69;100093.84;1712667;83;21123;-79
2021/08/12 07:11:54;;;;;;;5.42;3.37;;;;;;;29.30;33.53;100094.55;1721417;82;21074;-78
2021/08/12 07:14:22;;;;;;;7.45;3.02;;;;;;;29.22;33.83;100094.63;1666669;85;21046;-77
2021/08/12 07:16:49;;;;;;;5.95;3.33;;;;;;;29.00;34.20;100095.70;1668818;85;21114;-76
2021/08/12 07:19:18;;;;;;;4.80;2.72;;;;;;;29.03;34.47;100095.38;1724185;82;21073;-78
2021/08/12 07:21:47;;;;;;;5.08;2.87;;;;;;;29.22;34.04;100094.11;1721983;82;21908;-79
2021/08/12 07:24:14;;;;;;;5.53;3.00;;;;;;;29.62;33.57;100092.64;1729200;82;21085;-79
2021/08/12 07:26:46;;;;;;;8.50;3.10;;;;;;;29.71;32.66;100090.22;1718322;82;21084;-79
2021/08/12 07:29:13;;;;;;;5.78;2.77;;;;;;;29.60;32.69;100097.40;1718574;82;21125;-78
2021/08/12 07:31:41;;;;;;;5.05;2.72;;;;;;;29.72;33.22;100090.54;1710604;83;21121;-76
2021/08/12 07:34:08;;;;;;;4.12;2.22;;;;;;;29.93;32.27;100098.52;1689414;82;21957;-79
2021/08/12 07:36:36;;;;;;;4.05;2.20;;;;;;;29.99;31.42;100101.86;1719106;83;21083;-77
2021/08/12 07:39:08;;;;;;;6.28;2.50;;;;;;;30.10;31.69;100101.42;1715947;83;21083;-79
2021/08/12 07:41:37;;;;;;;11.33;2.95;;;;;;;30.03;31.54;100101.83;1719053;82;21095;-79
2021/08/12 07:44:06;;;;;;;3.92;2.60;;;;;;;30.02;31.61;100095.53;1716421;83;21062;-77
2021/08/12 07:46:33;;;;;;;4.05;2.50;;;;;;;30.11;31.63;100104.45;1718570;82;21179;-76
2021/08/12 07:49:01;;;;;;;3.85;2.80;;;;;;;29.89;31.39;100108.91;1713736;83;21063;-78
2021/08/12 07:51:28;;;;;;;3.33;2.40;;;;;;;29.84;31.90;100108.59;1701452;83;21034;-77
2021/08/12 07:53:55;;;;;;;5.92;2.83;;;;;;;29.75;32.29;100114.63;1721076;82;21060;-78
2021/08/12 07:56:22;;;;;;;3.50;2.70;;;;;;;29.88;31.51;100111.27;1719409;82;21181;-78
2021/08/12 07:58:49;;;;;;;5.53;2.35;;;;;;;30.10;31.29;100115.83;1698397;82;21116;-78
2021/08/12 08:01:17;;;;;;;4.70;2.60;;;;;;;30.38;30.59;100108.98;1709264;83;21123;-77
2021/08/12 08:03:45;;;;;;;3.87;2.35;;;;;;;30.48;30.94;100104.09;1699031;83;21037;-78
2021/08/12 08:06:14;;;;;;;3.35;2.35;;;;;;;30.47;31.20;100111.93;1692988;83;21558;-76
2021/08/12 08:08:43;;;;;;;4.25;2.62;;;;;;;30.28;30.65;100119.59;1713924;83;21047;-78
2021/08/12 08:11:14;;;;;;;4.12;2.40;;;;;;;30.14;30.61;100121.75;1714862;81;21094;-77
2021/08/12 08:13:41;;;;;;;5.00;2.45;;;;;;;30.22;30.88;100120.81;1702689;82;21099;-77
2021/08/12 08:16:10;;;;;;;7.90;2.92;;;;;;;30.29;30.58;100121.27;1718011;82;21176;-77
2021/08/12 08:18:38;;;;;;;5.55;2.50;;;;;;;30.39;30.77;100115.59;1717818;82;21201;-76
2021/08/12 08:21:06;;;;;;;3.62;2.40;;;;;;;30.64;29.88;100117.49;1712449;83;21567;-77
2021/08/12 08:23:34;;;;;;;5.90;2.67;;;;;;;30.81;29.53;100117.32;1717506;82;21162;-78
2021/08/12 08:26:02;;;;;;;7.53;2.30;;;;;;;30.56;29.32;100121.68;1708432;83;21099;-77
2021/08/12 08:28:30;;;;;;;8.53;2.58;;;;;;;30.49;29.57;100115.31;1719155;83;21617;-76
2021/08/12 08:30:56;;;;;;;4.45;2.37;;;;;;;30.50;29.21;100121.05;1710265;82;21119;-77
2021/08/12 08:33:24;;;;;;;5.05;2.65;;;;;;;30.38;29.26;100125.28;1718974;83;21063;-77
2021/08/12 08:35:51;;;;;;;7.45;2.40;;;;;;;30.38;29.91;100136.14;1719229;83;21515;-77
2021/08/12 08:38:18;;;;;;;5.53;2.50;;;;;;;30.59;29.78;100124.01;1701990;83;21115;-76
2021/08/12 08:40:45;;;;;;;3.92;2.05;;;;;;;30.77;29.80;100124.16;1700250;81;30583;-78
2021/08/12 08:43:13;;;;;;;4.87;2.20;;;;;;;30.76;29.57;100131.97;1697046;81;21088;-77
2021/08/12 08:45:41;;;;;;;3.55;2.40;;;;;;;30.70;29.52;100135.77;1711617;83;21038;-78
2021/08/12 08:48:10;;;;;;;4.12;2.17;;;;;;;30.76;29.37;100130.61;1693292;83;21544;-77
2021/08/12 08:50:37;;;;;;;6.63;2.77;;;;;;;30.87;29.79;100125.56;1710629;83;21531;-78
2021/08/12 08:53:04;;;;;;;3.87;2.47;;;;;;;30.98;28.90;100128.33;1717258;83;21313;-77
2021/08/12 08:55:31;;;;;;;4.75;2.12;;;;;;;30.78;29.03;100132.63;1711747;83;21058;-80
2021/08/12 08:57:58;;;;;;;5.75;2.35;;;;;;;30.53;29.64;100132.93;1714728;83;21112;-79
2021/08/12 09:00:26;;;;;;;3.90;2.30;;;;;;;30.28;29.07;100133.17;1713425;83;22238;-79
2021/08/12 09:02:55;;;;;;;2.72;2.02;;;;;;;30.35;30.34;100131.09;1713466;83;21094;-77
2021/08/12 09:05:22;;;;;;;4.15;2.40;;;;;;;30.72;29.38;100136.44;1714978;83;21575;-78
2021/08/12 09:07:52;;;;;;;5.05;2.42;;;;;;;31.01;28.66;100127.94;1715417;83;22236;-78
2021/08/12 09:10:20;;;;;;;4.50;2.40;;;;;;;31.01;28.66;100127.94;1707905;83;21224;-80
2021/08/12 09:12:48;;;;;;;8.05;2.92;;;;;;;31.27;27.43;100127.96;1710703;83;22291;-78
2021/08/12 09:15:23;;;;;;;5.30;2.40;;;;;;;31.30;27.39;100124.84;1714191;83;21100;-78
2021/08/12 09:17:49;;;;;;;13.03;2.60;;;;;;;31.31;27.87;100124.66;1700842;83;21048;-79
2021/08/12 09:20:26;;;;;;;2.75;2.20;;;;;;;31.35;27.44;100122.38;1719245;83;21136;-78
2021/08/12 09:23:04;;;;;;;4.83;1.85;;;;;;;31.35;27.27;100100.61;1714568;83;21060;-76
2021/08/12 09:25:47;;;;;;;7.05;2.47;;;;;;;31.25;27.73;100125.42;1720268;83;22016;-78
2021/08/12 09:28:31;;;;;;;3.42;2.08;;;;;;;31.31;26.91;100119.71;1719341;83;21070;-79
2021/08/12 09:31:04;;;;;;;4.28;2.87;;;;;;;31.52;27.41;100120.31;1717569;83;21105;-77
2021/08/12 09:33:44;;;;;;;2.92;2.00;;;;;;;31.75;26.94;100122.84;1720205;83;21036;-79
2021/08/12 09:36:37;;;;;;;4.80;2.10;;;;;;;31.93;26.57;100125.94;1718976;83;21205;-78
2021/08/12 09:39:20;;;;;;;4.50;2.10;;;;;;;31.83;26.36;100126.77;1718287;82;21179;-79
2021/08/12 09:41:52;;;;;;;4.97;2.20;;;;;;;31.83;26.55;100119.97;1719772;83;21120;-78
2021/08/12 09:44:44;;;;;;;4.35;2.40;;;;;;;32.03;25.83;100124.79;1720288;83;22118;-78
2021/08/12 09:47:17;;;;;;;4.90;2.22;;;;;;;32.28;25.69;100120.58;1719538;83;21072;-78
2021/08/12 09:49:48;;;;;;;5.35;2.40;;;;;;;32.51;25.65;100122.20;1718922;83;21167;-79
2021/08/12 09:52:36;;;;;;;5.25;2.22;;;;;;;32.33;25.15;100123.55;1695128;83;21610;-79
2021/08/12 09:55:13;;;;;;;5.22;2.72;;;;;;;32.32;25.67;100116.39;1705964;83;21071;-79
2021/08/12 09:57:48;;;;;;;5.42;2.80;;;;;;;32.30;25.17;100118.50;1719021;83;21049;-79
2021/08/12 10:00:32;;;;;;;5.03;2.47;;;;;;;32.38;24.95;100129.23;1718902;83;21111;-78
2021/08/12 10:03:01;;;;;;;5.80;2.65;;;;;;;32.50;24.64;100123.23;1716595;83;22408;-79
2021/08/12 10:05:30;;;;;;;5.03;2.58;;;;;;;32.32;24.78;100113.66;1719285;83;21524;-79
2021/08/12 10:08:00;;;;;;;6.08;2.72;;;;;;;32.27;25.28;100122.97;1720587;83;21217;-78
2021/08/12 10:10:29;;;;;;;4.85;2.60;;;;;;;32.18;24.58;100120.06;1721058;83;21083;-78
2021/08/12 10:12:59;;;;;;;5.10;3.02;;;;;;;32.23;25.07;100120.31;1717038;83;21097;-77
2021/08/12 10:15:33;;;;;;;5.35;2.90;;;;;;;32.52;24.68;100117.09;1721908;83;21076;-79
2021/08/12 10:18:02;;;;;;;3.60;2.72;;;;;;;32.68;24.28;100116.76;1722220;83;21070;-79
2021/08/12 10:20:35;;;;;;;5.67;2.95;;;;;;;32.75;24.13;100113.54;1722053;83;21077;-77
2021/08/12 10:23:05;;;;;;;5.33;3.25;;;;;;;32.51;24.21;100119.48;1721413;82;20981;-77
2021/08/12 10:25:36;;;;;;;9.53;3.40;;;;;;;32.21;24.94;100101.98;1721649;82;20969;-78
2021/08/12 10:28:07;;;;;;;4.70;2.37;;;;;;;32.05;24.46;100114.52;1718615;83;21005;-77
2021/08/12 10:30:34;;;;;;;5.10;2.95;;;;;;;32.03;24.28;100114.73;1718640;82;21116;-76
2021/08/12 10:33:06;;;;;;;10.98;2.47;;;;;;;32.02;24.34;100117.64;1693440;83;21044;-79
2021/08/12 10:35:36;;;;;;;3.95;2.77;;;;;;;31.97;24.23;100132.68;1719995;83;21542;-78
2021/08/12 10:38:03;;;;;;;3.60;2.50;;;;;;;31.97;24.69;100127.77;1719934;83;21205;-78
2021/08/12 10:40:36;;;;;;;3.70;2.47;;;;;;;32.12;24.62;100127.69;1715325;83;21103;-79
2021/08/12 10:43:06;;;;;;;3.40;2.50;;;;;;;32.37;24.70;100135.73;1719701;83;21293;-77
2021/08/12 10:45:34;;;;;;;19.55;3.10;;;;;;;32.67;23.74;100138.27;1716074;83;21025;-78
2021/08/12 10:48:03;;;;;;;4.72;2.40;;;;;;;32.76;23.24;100132.97;1719453;83;21135;-78
2021/08/12 10:50:36;;;;;;;5.83;2.55;;;;;;;32.80;23.82;100142.41;1719609;83;21079;-77
2021/08/12 10:53:14;;;;;;;4.50;2.80;;;;;;;32.80;23.19;100134.22;1720383;83;21119;-78
2021/08/12 10:55:52;;;;;;;5.03;2.52;;;;;;;32.86;23.76;100136.67;1719298;83;21582;-77
2021/08/12 10:58:29;;;;;;;7.25;2.55;;;;;;;32.75;22.84;100143.53;1722578;82;21099;-83
2021/08/12 11:01:04;;;;;;;7.53;2.75;;;;;;;32.69;23.54;100145.69;1722498;83;21091;-81
2021/08/12 11:03:43;;;;;;;5.50;2.42;;;;;;;32.75;22.85;100139.97;1724227;83;21076;-82
2021/08/12 11:06:22;;;;;;;5.15;2.60;;;;;;;32.72;22.96;100141.22;1722856;83;21735;-81
2021/08/12 11:08:55;;;;;;;5.87;2.58;;;;;;;32.81;23.34;100142.73;1721323;82;21162;-83
2021/08/12 11:11:36;;;;;;;3.10;2.33;;;;;;;32.87;23.52;100142.44;1720387;83;21068;-82
2021/08/12 11:14:13;;;;;;;3.50;2.15;;;;;;;32.87;23.24;100140.24;1720017;83;21290;-82
2021/08/12 11:16:49;;;;;;;3.80;2.27;;;;;;;32.88;23.28;100140.58;1723939;83;21072;-82
2021/08/12 11:19:35;;;;;;;3.83;2.05;;;;;;;32.72;23.52;100135.77;1722924;83;21040;-81
2021/08/12 11:22:25;;;;;;;2.87;2.00;;;;;;;32.79;22.68;100143.45;1722647;83;21154;-82
2021/08/12 11:24:54;;;;;;;5.72;2.00;;;;;;;32.72;22.91;100141.22;1691127;83;21678;-82
2021/08/12 11:27:35;;;;;;;4.80;2.25;;;;;;;32.66;23.10;100136.56;1721969;83;21089;-81
2021/08/12 11:30:30;;;;;;;4.33;2.05;;;;;;;32.67;22.70;100140.12;1723081;83;21103;-81
2021/08/12 11:33:27;;;;;;;14.65;2.92;;;;;;;32.57;22.66;100135.04;1720358;83;21586;-82
2021/08/12 11:36:20;;;;;;;9.15;2.77;;;;;;;32.43;23.33;100138.70;1722675;83;21108;-81
2021/08/12 11:38:52;;;;;;;9.05;2.77;;;;;;;32.21;22.97;100147.44;1722851;83;21015;-82
2021/08/12 11:41:20;;;;;;;3.35;2.65;;;;;;;32.03;23.29;100141.13;1723884;83;21554;-82
2021/08/12 11:43:48;;;;;;;3.37;2.30;;;;;;;31.81;23.78;100127.48;1723116;83;21064;-79